Time;durP1;ratioP1;P1;durP2;ratioP2;P2;SDS_P1;SDS_P2;PMS_P1;PMS_P2;Temp;Humidity;BMP_temperature;BMP_pressure;BME280_temperature;BME280_humidity;BME280_pressure;Samples;Min_cycle;Max_cycle;Signal;HPM_P1;HPM_P2
2022/05/02 00:00:00;;;;;;;11.18;9.82;;;8.60;99.90;;;;;;5087740;28;20036;-74
2022/05/02 00:02:25;;;;;;;12.65;10.82;;;8.50;99.90;;;;;;5088642;28;20040;-75
2022/05/02 00:04:54;;;;;;;12.45;11.20;;;8.50;99.90;;;;;;5086767;28;20040;-74
2022/05/02 00:07:20;;;;;;;12.27;11.00;;;8.50;99.90;;;;;;5094806;28;20036;-74
2022/05/02 00:09:45;;;;;;;12.00;10.80;;;8.50;99.90;;;;;;5089207;28;20532;-74
2022/05/02 00:12:11;;;;;;;12.45;10.68;;;8.50;99.90;;;;;;5087405;28;20055;-74
2022/05/02 00:14:36;;;;;;;13.07;11.20;;;8.50;99.90;;;;;;5088643;28;20101;-74
2022/05/02 00:17:02;;;;;;;14.13;11.75;;;8.50;99.90;;;;;;5096995;28;20399;-75
2022/05/02 00:19:28;;;;;;;12.45;11.10;;;8.40;99.90;;;;;;5103360;28;20072;-74
2022/05/02 00:21:54;;;;;;;12.48;11.00;;;8.40;99.90;;;;;;5089972;28;20071;-74
2022/05/02 00:24:19;;;;;;;12.60;11.30;;;8.40;99.90;;;;;;5090126;28;20050;-74
2022/05/02 00:26:45;;;;;;;13.77;10.98;;;8.40;99.90;;;;;;5095836;28;20046;-74
2022/05/02 00:29:11;;;;;;;13.18;11.23;;;8.40;99.90;;;;;;5105348;28;20047;-74
2022/05/02 00:31:36;;;;;;;13.25;11.70;;;8.30;99.90;;;;;;5102187;28;20387;-74
2022/05/02 00:34:02;;;;;;;13.77;11.63;;;8.30;99.90;;;;;;5091464;28;20094;-74
2022/05/02 00:36:28;;;;;;;13.52;12.00;;;8.30;99.90;;;;;;5087000;28;20048;-74
2022/05/02 00:38:53;;;;;;;13.95;11.75;;;8.30;99.90;;;;;;5094635;28;20163;-74
2022/05/02 00:41:20;;;;;;;14.00;12.48;;;8.20;99.90;;;;;;5108553;28;20051;-73
2022/05/02 00:43:46;;;;;;;13.23;11.88;;;8.20;99.90;;;;;;5109102;28;20502;-74
2022/05/02 00:46:19;;;;;;;16.02;12.77;;;8.20;99.90;;;;;;5108669;27;20086;-74
2022/05/02 00:48:45;;;;;;;13.07;11.77;;;8.20;99.90;;;;;;5097620;28;20181;-74
2022/05/02 00:51:11;;;;;;;14.05;12.07;;;8.10;99.90;;;;;;5104925;27;20040;-74
2022/05/02 00:53:38;;;;;;;17.73;12.98;;;8.10;99.90;;;;;;5094337;28;20682;-74
2022/05/02 00:56:05;;;;;;;14.13;12.70;;;8.10;99.90;;;;;;5104922;28;20478;-74
2022/05/02 00:58:30;;;;;;;13.93;12.27;;;8.00;99.90;;;;;;5105002;27;20131;-74
2022/05/02 01:00:56;;;;;;;14.55;13.07;;;8.00;99.90;;;;;;5101138;27;20126;-74
2022/05/02 01:03:21;;;;;;;14.63;13.10;;;7.90;99.90;;;;;;5092313;27;20071;-74
2022/05/02 01:08:33;;;;;;;15.05;13.10;;;7.60;99.90;;;;;;5099178;27;20048;-74
2022/05/02 01:11:00;;;;;;;15.18;12.85;;;7.50;99.90;;;;;;5106986;28;20063;-74
2022/05/02 01:13:44;;;;;;;14.40;12.90;;;7.40;99.90;;;;;;5108674;28;20461;-74
2022/05/02 01:16:23;;;;;;;14.82;13.32;;;7.40;99.90;;;;;;5101518;28;20047;-74
2022/05/02 01:18:51;;;;;;;16.58;13.85;;;7.40;99.90;;;;;;5107834;28;20058;-75
2022/05/02 01:21:21;;;;;;;14.32;12.85;;;7.30;99.90;;;;;;5111593;27;20036;-75
2022/05/02 01:23:54;;;;;;;15.93;14.15;;;7.30;99.90;;;;;;5102903;27;20050;-75
2022/05/02 01:26:20;;;;;;;14.60;13.20;;;7.30;99.90;;;;;;5100677;28;20054;-75
2022/05/02 01:28:55;;;;;;;14.57;13.07;;;7.30;99.90;;;;;;5101493;27;20093;-75
2022/05/02 01:31:21;;;;;;;15.95;13.63;;;7.20;99.90;;;;;;5108523;27;20088;-75
2022/05/02 01:33:48;;;;;;;16.30;14.60;;;7.20;99.90;;;;;;5095982;28;20032;-75
2022/05/02 01:36:14;;;;;;;16.15;14.43;;;7.20;99.90;;;;;;5110630;28;20048;-74
2022/05/02 01:38:40;;;;;;;15.23;13.65;;;7.20;99.90;;;;;;5098120;28;20032;-74
2022/05/02 01:41:07;;;;;;;16.15;14.43;;;7.10;99.90;;;;;;5093444;28;20407;-74
2022/05/02 01:43:33;;;;;;;14.77;13.27;;;7.10;99.90;;;;;;5095005;28;20387;-74
2022/05/02 01:45:59;;;;;;;15.23;13.63;;;7.10;99.90;;;;;;5105066;28;20031;-74
2022/05/02 01:48:25;;;;;;;16.33;14.57;;;7.10;99.90;;;;;;5091445;28;20056;-75
2022/05/02 01:50:50;;;;;;;16.63;13.68;;;7.10;99.90;;;;;;5097656;28;20402;-75
2022/05/02 01:53:16;;;;;;;18.17;15.43;;;7.10;99.90;;;;;;5090467;27;20044;-75
2022/05/02 01:55:42;;;;;;;16.83;15.02;;;7.00;99.90;;;;;;5107216;28;20974;-74
2022/05/02 01:58:08;;;;;;;17.30;15.32;;;7.00;99.90;;;;;;5103508;27;20047;-75
2022/05/02 02:00:33;;;;;;;19.58;16.05;;;7.00;99.90;;;;;;5105617;27;20185;-74
2022/05/02 02:02:59;;;;;;;17.80;16.02;;;7.10;99.90;;;;;;5092191;28;20051;-75
2022/05/02 02:08:09;;;;;;;16.63;15.00;;;7.10;99.90;;;;;;5106430;28;20441;-75
2022/05/02 02:10:34;;;;;;;17.75;16.00;;;7.10;99.90;;;;;;5106409;28;20048;-74
2022/05/02 02:13:00;;;;;;;17.40;15.70;;;7.10;99.90;;;;;;5106574;28;20036;-75
2022/05/02 02:15:26;;;;;;;17.48;15.60;;;7.10;99.90;;;;;;5097975;27;20096;-75
2022/05/02 02:17:51;;;;;;;20.13;17.20;;;7.00;99.90;;;;;;5097360;27;20055;-75
2022/05/02 02:20:17;;;;;;;18.00;16.20;;;7.00;99.90;;;;;;5100032;28;20056;-74
2022/05/02 02:22:42;;;;;;;17.95;16.25;;;7.00;99.90;;;;;;5095320;27;20044;-74
2022/05/02 02:25:08;;;;;;;18.88;16.00;;;7.00;99.90;;;;;;5106486;27;20077;-74
2022/05/02 02:27:34;;;;;;;17.15;15.45;;;6.90;99.90;;;;;;5093473;27;20036;-75
2022/05/02 02:30:00;;;;;;;19.00;17.08;;;6.90;99.90;;;;;;5098169;27;20185;-74
2022/05/02 02:32:26;;;;;;;19.55;17.55;;;6.90;99.90;;;;;;5108388;28;20723;-75
2022/05/02 02:34:52;;;;;;;19.60;17.52;;;6.80;99.90;;;;;;5105519;27;20134;-74
2022/05/02 02:37:20;;;;;;;19.52;17.25;;;6.90;99.90;;;;;;5104010;27;20197;-75
2022/05/02 02:39:46;;;;;;;18.70;16.73;;;6.90;99.90;;;;;;5106135;28;20048;-75
2022/05/02 02:42:12;;;;;;;18.58;16.15;;;6.90;99.90;;;;;;5102004;28;20047;-74
2022/05/02 02:44:37;;;;;;;19.65;17.73;;;6.90;99.90;;;;;;5091089;27;20044;-74
2022/05/02 02:47:03;;;;;;;19.42;17.02;;;6.90;99.90;;;;;;5091050;28;21030;-75
2022/05/02 02:49:29;;;;;;;19.77;17.77;;;6.90;99.90;;;;;;5099676;27;20188;-75
2022/05/02 02:51:57;;;;;;;19.30;17.23;;;6.90;99.90;;;;;;5106542;27;20152;-74
2022/05/02 02:54:26;;;;;;;19.30;17.23;;;6.90;99.90;;;;;;5102661;27;20048;-75
2022/05/02 02:56:51;;;;;;;19.60;17.60;;;6.80;99.90;;;;;;5101883;28;20046;-75
2022/05/02 02:59:17;;;;;;;19.83;17.92;;;6.80;99.90;;;;;;5100566;28;20262;-76
2022/05/02 03:01:43;;;;;;;18.80;16.95;;;6.70;99.90;;;;;;5097478;27;20032;-76
2022/05/02 03:06:53;;;;;;;19.88;16.85;;;6.70;99.90;;;;;;5089926;28;20097;-75
2022/05/02 03:09:19;;;;;;;21.05;17.73;;;6.70;99.90;;;;;;5105276;28;20040;-75
2022/05/02 03:11:45;;;;;;;20.23;17.30;;;6.60;99.90;;;;;;5109934;28;20506;-75
2022/05/02 03:14:11;;;;;;;18.55;16.67;;;6.60;99.90;;;;;;5102801;27;20062;-75
2022/05/02 03:16:37;;;;;;;20.40;18.23;;;6.60;99.90;;;;;;5087315;28;20472;-75
2022/05/02 03:19:02;;;;;;;19.42;17.40;;;6.60;99.90;;;;;;5096056;28;20172;-75
2022/05/02 03:21:28;;;;;;;21.48;19.27;;;6.50;99.90;;;;;;5106930;28;20054;-75
2022/05/02 03:23:54;;;;;;;21.00;18.83;;;6.50;99.90;;;;;;5100280;28;20440;-75
2022/05/02 03:26:19;;;;;;;20.27;18.00;;;6.50;99.90;;;;;;5106448;27;20073;-75
2022/05/02 03:28:45;;;;;;;22.23;19.20;;;6.40;99.90;;;;;;5108043;27;20051;-75
2022/05/02 03:31:10;;;;;;;21.85;19.48;;;6.40;99.90;;;;;;5104172;27;20063;-75
2022/05/02 03:33:36;;;;;;;20.88;18.33;;;6.40;99.90;;;;;;5091982;27;20048;-74
2022/05/02 03:36:02;;;;;;;20.15;18.23;;;6.40;99.90;;;;;;5098836;28;20044;-75
2022/05/02 03:38:27;;;;;;;20.95;18.83;;;6.40;99.90;;;;;;5093123;28;20036;-75
2022/05/02 03:40:53;;;;;;;20.73;18.63;;;6.40;99.90;;;;;;5090147;28;20398;-74
2022/05/02 03:43:19;;;;;;;22.27;19.92;;;6.40;99.90;;;;;;5095870;28;20122;-75
2022/05/02 03:45:48;;;;;;;21.40;19.10;;;6.40;99.90;;;;;;5089356;27;20140;-74
2022/05/02 03:48:17;;;;;;;22.00;19.70;;;6.40;99.90;;;;;;5089011;28;20062;-75
2022/05/02 03:50:45;;;;;;;20.85;18.73;;;6.40;99.90;;;;;;5104995;27;20550;-75
2022/05/02 03:53:15;;;;;;;21.10;18.90;;;6.40;99.90;;;;;;5107727;28;20130;-75
2022/05/02 03:55:42;;;;;;;21.85;19.05;;;6.30;99.90;;;;;;5102648;27;20040;-75
2022/05/02 03:58:08;;;;;;;22.10;19.83;;;6.30;99.90;;;;;;5108528;28;20100;-75
2022/05/02 04:00:34;;;;;;;21.95;19.50;;;6.30;99.90;;;;;;5096677;28;20508;-75
2022/05/02 04:03:00;;;;;;;22.70;20.38;;;6.30;99.90;;;;;;5089139;28;20437;-75
2022/05/02 04:05:29;;;;;;;22.25;19.98;;;6.30;99.90;;;;;;5096324;28;20039;-74
2022/05/02 04:07:54;;;;;;;22.42;20.13;;;6.30;99.90;;;;;;5091044;28;20425;-74
2022/05/02 04:10:20;;;;;;;22.48;19.90;;;6.20;99.90;;;;;;5105459;28;20101;-75
2022/05/02 04:12:46;;;;;;;23.10;20.67;;;6.30;99.90;;;;;;5105202;27;20077;-74
2022/05/02 04:15:12;;;;;;;21.90;19.67;;;6.20;99.90;;;;;;5090885;28;20478;-75
2022/05/02 04:17:41;;;;;;;22.13;19.92;;;6.30;99.90;;;;;;5094629;28;21032;-75
2022/05/02 04:20:09;;;;;;;22.90;20.52;;;6.20;99.90;;;;;;5096699;28;20097;-75
2022/05/02 04:22:38;;;;;;;22.15;19.88;;;6.30;99.90;;;;;;5094241;28;20048;-75
2022/05/02 04:25:05;;;;;;;22.88;20.45;;;6.20;99.90;;;;;;5093959;28;20027;-75
2022/05/02 04:27:31;;;;;;;22.60;19.90;;;6.30;99.90;;;;;;5107484;28;20058;-75
2022/05/02 04:29:56;;;;;;;22.67;20.38;;;6.30;99.90;;;;;;5102045;28;20048;-74
2022/05/02 04:32:22;;;;;;;23.40;20.80;;;6.20;99.90;;;;;;5104993;28;20046;-74
2022/05/02 04:34:48;;;;;;;22.60;20.17;;;6.20;99.90;;;;;;5089514;28;20044;-75
2022/05/02 04:37:14;;;;;;;23.00;20.58;;;6.20;99.90;;;;;;5092527;28;20041;-75
2022/05/02 04:39:39;;;;;;;24.77;20.45;;;6.20;99.90;;;;;;5089089;28;20460;-75
2022/05/02 04:42:06;;;;;;;22.80;20.50;;;6.20;99.90;;;;;;5088277;28;20364;-75
2022/05/02 04:44:32;;;;;;;29.60;21.80;;;6.30;99.90;;;;;;5095226;28;20048;-75
2022/05/02 04:46:58;;;;;;;24.00;20.77;;;6.30;99.90;;;;;;5088510;28;20056;-75
2022/05/02 04:49:24;;;;;;;24.02;21.52;;;6.40;99.90;;;;;;5105474;28;20354;-75
2022/05/02 04:51:49;;;;;;;22.33;19.85;;;6.40;99.90;;;;;;5098144;28;20048;-75
2022/05/02 04:54:15;;;;;;;23.20;20.75;;;6.40;99.90;;;;;;5088193;28;20040;-75
2022/05/02 04:56:40;;;;;;;22.40;19.77;;;6.40;99.90;;;;;;5091559;28;20191;-75
2022/05/02 04:59:06;;;;;;;22.67;20.48;;;6.40;99.90;;;;;;5088770;28;20045;-75
2022/05/02 05:01:32;;;;;;;23.02;20.65;;;6.40;99.90;;;;;;5086373;28;20440;-75
2022/05/02 05:03:57;;;;;;;21.88;19.58;;;6.50;99.90;;;;;;5087850;28;20044;-75
2022/05/02 05:06:23;;;;;;;23.02;19.75;;;6.50;99.90;;;;;;5099231;28;20040;-75
2022/05/02 05:08:49;;;;;;;21.95;19.75;;;6.60;99.90;;;;;;5109410;28;20044;-74
2022/05/02 05:11:26;;;;;;;23.30;20.85;;;6.70;99.90;;;;;;5107908;28;20035;-75
2022/05/02 05:17:05;;;;;;;22.52;20.20;;;6.80;99.90;;;;;;5114649;28;20039;-75
2022/05/02 05:20:10;;;;;;;22.23;20.02;;;6.80;99.90;;;;;;5128834;28;20053;-75
2022/05/02 05:23:00;;;;;;;22.77;20.58;;;6.90;99.90;;;;;;5107656;28;20048;-75
2022/05/02 05:25:39;;;;;;;24.02;20.30;;;7.00;99.90;;;;;;5105201;27;20040;-75
2022/05/02 05:28:41;;;;;;;23.58;20.45;;;7.00;99.90;;;;;;5102256;28;20047;-75
2022/05/02 05:31:23;;;;;;;22.02;19.73;;;7.00;99.90;;;;;;5091303;28;20036;-75
2022/05/02 05:34:16;;;;;;;23.42;20.92;;;7.10;99.90;;;;;;5109430;28;20075;-75
2022/05/02 05:37:16;;;;;;;23.13;20.73;;;7.10;99.90;;;;;;5103712;27;20398;-74
2022/05/02 05:39:47;;;;;;;21.77;19.48;;;7.20;99.90;;;;;;5111329;28;20108;-74
2022/05/02 05:42:45;;;;;;;22.55;20.25;;;7.30;99.90;;;;;;5100195;27;20040;-74
2022/05/02 05:45:46;;;;;;;22.63;20.35;;;7.40;99.90;;;;;;5100223;27;20052;-75
2022/05/02 05:48:19;;;;;;;21.45;19.35;;;7.50;99.90;;;;;;5091479;27;20414;-75
2022/05/02 05:50:54;;;;;;;20.58;18.48;;;7.60;99.90;;;;;;5095134;27;20062;-74
2022/05/02 05:53:43;;;;;;;21.13;19.02;;;7.70;99.90;;;;;;5100041;28;20403;-75
2022/05/02 05:56:47;;;;;;;21.75;19.55;;;7.90;99.90;;;;;;5104504;28;20579;-76
2022/05/02 05:59:30;;;;;;;20.15;18.17;;;8.00;99.90;;;;;;5102066;27;20040;-76
2022/05/02 06:02:15;;;;;;;20.38;18.20;;;8.10;99.90;;;;;;5096940;27;20047;-76
2022/05/02 06:04:42;;;;;;;19.55;17.65;;;8.10;99.90;;;;;;5091092;28;20063;-77
2022/05/02 06:07:08;;;;;;;;;;;8.20;99.90;;;;;;5098912;28;20036;-77
2022/05/02 06:09:38;;;;;;;20.77;18.58;;;8.30;99.90;;;;;;5095868;28;19930;-76
2022/05/02 06:12:05;;;;;;;19.55;17.75;;;8.30;99.90;;;;;;5088494;28;20480;-80
2022/05/02 06:18:27;;;;;;;19.45;17.45;;;8.40;99.90;;;;;;5092151;28;20039;-75
2022/05/02 06:20:12;;;;;;;18.83;16.98;;;8.60;99.90;;;;;;5094022;28;20066;-74
2022/05/02 06:22:39;;;;;;;;;;;8.70;99.90;;;;;;5090347;27;20031;-75
2022/05/02 06:25:05;;;;;;;19.00;17.00;;;8.80;99.90;;;;;;5108301;27;19987;-75
2022/05/02 06:27:33;;;;;;;20.08;17.77;;;8.80;99.90;;;;;;5095246;27;20493;-75
2022/05/02 06:30:03;;;;;;;19.27;17.30;;;9.00;99.90;;;;;;5094025;27;20157;-74
2022/05/02 06:32:30;;;;;;;19.45;17.35;;;9.10;99.90;;;;;;5099461;28;20028;-75
2022/05/02 06:34:57;;;;;;;19.02;17.13;;;9.10;99.90;;;;;;5089645;28;20032;-75
2022/05/02 06:37:25;;;;;;;19.02;16.92;;;9.20;99.90;;;;;;5089330;28;20083;-75
2022/05/02 06:40:05;;;;;;;19.80;17.80;;;9.20;99.90;;;;;;5110524;27;20076;-74
2022/05/02 06:42:37;;;;;;;18.77;16.88;;;9.30;99.90;;;;;;5106380;27;20040;-75
2022/05/02 06:45:12;;;;;;;18.92;17.13;;;9.40;99.90;;;;;;5094171;27;20352;-75
2022/05/02 06:47:49;;;;;;;19.73;16.30;;;9.50;99.90;;;;;;5095254;28;20465;-74
2022/05/02 06:50:18;;;;;;;19.13;16.33;;;9.60;99.90;;;;;;5089894;28;20048;-75
2022/05/02 06:53:05;;;;;;;19.52;16.48;;;9.60;99.90;;;;;;5090882;28;20036;-75
2022/05/02 06:55:44;;;;;;;17.92;16.08;;;9.70;99.90;;;;;;5098763;27;20468;-75
2022/05/02 06:58:31;;;;;;;18.00;16.20;;;9.80;99.90;;;;;;5091514;27;20075;-75
2022/05/02 07:01:08;;;;;;;18.57;16.67;;;9.90;99.90;;;;;;5101444;28;20044;-75
2022/05/02 07:04:03;;;;;;;18.02;16.23;;;10.00;99.90;;;;;;5093029;27;20302;-75
2022/05/02 07:06:59;;;;;;;18.60;16.60;;;10.20;99.90;;;;;;5108588;28;20063;-75
2022/05/02 07:09:31;;;;;;;19.48;15.70;;;10.30;99.90;;;;;;5090420;28;20543;-75
2022/05/02 07:12:17;;;;;;;17.02;15.23;;;10.40;99.90;;;;;;5108318;27;20039;-75
2022/05/02 07:15:03;;;;;;;16.77;14.93;;;10.50;99.90;;;;;;5096905;28;20043;-77
2022/05/02 07:17:45;;;;;;;17.43;14.70;;;10.60;99.90;;;;;;5103455;27;20049;-79
2022/05/02 07:20:31;;;;;;;17.05;13.27;;;10.70;99.90;;;;;;5098863;28;20297;-77
2022/05/02 07:23:34;;;;;;;17.95;14.75;;;10.70;99.90;;;;;;5093818;28;20090;-79
2022/05/02 07:26:07;;;;;;;14.13;12.68;;;10.90;99.90;;;;;;5094578;28;20164;-80
2022/05/02 07:28:42;;;;;;;17.58;12.55;;;11.10;99.90;;;;;;5109269;28;20050;-77
2022/05/02 07:31:09;;;;;;;17.40;13.30;;;11.10;99.90;;;;;;5097639;28;20096;-78
2022/05/02 07:33:36;;;;;;;15.40;12.63;;;11.30;99.90;;;;;;5090014;28;20526;-75
2022/05/02 07:36:02;;;;;;;14.55;13.02;;;11.30;99.90;;;;;;5108757;28;20297;-77
2022/05/02 07:38:33;;;;;;;18.23;14.65;;;11.40;99.90;;;;;;5109387;28;20108;-77
2022/05/02 07:41:25;;;;;;;15.27;13.30;;;11.50;99.90;;;;;;5105616;28;20039;-77
2022/05/02 07:44:07;;;;;;;15.18;12.40;;;11.70;99.90;;;;;;5098533;28;20071;-78
2022/05/02 07:46:37;;;;;;;12.60;11.27;;;11.80;99.90;;;;;;5101964;28;20411;-79
2022/05/02 07:49:05;;;;;;;14.05;12.55;;;11.90;99.90;;;;;;5102657;27;20043;-76
2022/05/02 07:51:31;;;;;;;19.42;11.55;;;12.00;99.90;;;;;;5092456;27;20048;-77
2022/05/02 07:53:59;;;;;;;13.88;11.23;;;12.10;99.90;;;;;;5102004;27;20101;-74
2022/05/02 07:56:35;;;;;;;13.85;10.48;;;12.20;99.90;;;;;;5095714;27;20396;-75
2022/05/02 07:59:02;;;;;;;14.13;11.40;;;12.30;99.90;;;;;;5087476;28;20058;-75
2022/05/02 08:01:27;;;;;;;11.77;10.27;;;12.40;99.90;;;;;;5098960;27;20068;-74
2022/05/02 08:03:53;;;;;;;15.23;9.90;;;12.40;99.90;;;;;;5089158;28;20075;-74
2022/05/02 08:06:34;;;;;;;12.35;9.68;;;12.50;99.90;;;;;;5085840;28;20346;-74
2022/05/02 08:09:33;;;;;;;17.60;9.90;;;12.60;99.90;;;;;;5092268;28;20066;-72
2022/05/02 08:12:20;;;;;;;10.00;8.90;;;12.70;99.90;;;;;;5101987;27;20039;-72
2022/05/02 08:15:12;;;;;;;11.65;9.63;;;12.70;99.90;;;;;;5107882;28;20515;-72
2022/05/02 08:17:38;;;;;;;12.00;9.55;;;12.80;99.90;;;;;;5107593;28;20044;-72
2022/05/02 08:20:06;;;;;;;13.93;9.88;;;12.90;99.90;;;;;;5094664;28;20058;-72
2022/05/02 08:29:17;;;;;;;11.85;9.05;;;13.10;99.90;;;;;;5098689;28;20044;-76
2022/05/02 08:32:10;;;;;;;13.68;8.80;;;13.20;99.90;;;;;;5105505;28;20049;-75
2022/05/02 08:34:38;;;;;;;15.93;9.15;;;13.30;99.90;;;;;;5093412;28;20480;-76
2022/05/02 08:37:28;;;;;;;11.43;9.82;;;13.30;99.90;;;;;;5105814;28;20047;-75
2022/05/02 08:40:13;;;;;;;11.80;9.13;;;13.40;96.00;;;;;;5111696;28;20081;-74
2022/05/02 08:42:55;;;;;;;13.23;8.60;;;13.40;95.70;;;;;;5105884;28;20071;-75
2022/05/02 08:46:08;;;;;;;41.30;16.77;;;13.50;91.50;;;;;;5107253;28;20523;-75
2022/05/02 08:48:46;;;;;;;17.35;9.38;;;13.50;91.80;;;;;;5093374;28;20054;-74
2022/05/02 08:51:47;;;;;;;9.15;8.02;;;13.60;93.80;;;;;;5102493;28;20048;-75
2022/05/02 08:54:44;;;;;;;11.65;7.65;;;13.60;90.70;;;;;;5105504;28;20123;-75
2022/05/02 08:57:31;;;;;;;14.80;8.82;;;13.70;90.50;;;;;;5107769;28;20060;-74
2022/05/02 09:00:05;;;;;;;9.07;7.82;;;13.80;93.60;;;;;;5113382;28;20546;-75
2022/05/02 09:03:21;;;;;;;11.38;8.05;;;13.90;87.20;;;;;;5110446;27;20143;-75
2022/05/02 09:06:07;;;;;;;11.27;7.77;;;14.00;90.10;;;;;;5104094;28;20052;-74
2022/05/02 09:08:55;;;;;;;11.10;8.63;;;14.00;92.30;;;;;;5100497;27;20048;-73
2022/05/02 09:11:58;;;;;;;10.90;8.27;;;14.10;84.30;;;;;;5112077;28;20577;-72
2022/05/02 09:14:42;;;;;;;9.63;8.63;;;14.10;71.60;;;;;;5103782;28;20050;-74
2022/05/02 09:17:48;;;;;;;12.23;9.73;;;14.10;74.80;;;;;;5091397;27;20061;-73
2022/05/02 09:20:23;;;;;;;10.02;8.48;;;14.20;85.40;;;;;;5096108;27;20043;-78
2022/05/02 09:23:13;;;;;;;11.07;8.88;;;14.30;81.40;;;;;;5096950;27;20117;-78
2022/05/02 09:26:00;;;;;;;10.60;8.90;;;14.40;84.60;;;;;;5102070;27;20056;-79
2022/05/02 09:28:36;;;;;;;11.60;8.45;;;14.50;86.40;;;;;;5095930;28;20071;-78
2022/05/02 09:31:39;;;;;;;19.83;10.23;;;14.60;82.00;;;;;;5093499;27;20066;-78
2022/05/02 09:34:18;;;;;;;12.13;9.52;;;14.70;84.70;;;;;;5098027;27;20048;-78
2022/05/02 09:36:53;;;;;;;12.00;9.13;;;14.80;85.40;;;;;;5080926;28;20044;-78
2022/05/02 09:39:24;;;;;;;11.00;9.38;;;14.90;85.30;;;;;;5101011;27;20047;-77
2022/05/02 09:42:10;;;;;;;13.38;9.43;;;15.00;79.20;;;;;;5101529;27;20498;-77
2022/05/02 09:51:23;;;;;;;11.73;9.82;;;14.90;69.20;;;;;;5109775;27;20075;-76
2022/05/02 09:54:14;;;;;;;12.45;10.30;;;14.90;73.50;;;;;;5111822;28;20122;-76
2022/05/02 09:56:45;;;;;;;13.38;10.20;;;14.90;69.20;;;;;;5112349;28;20044;-76
2022/05/02 09:59:26;;;;;;;11.88;10.05;;;15.00;67.10;;;;;;5107718;27;20050;-75
2022/05/02 10:02:19;;;;;;;11.82;9.73;;;15.00;69.50;;;;;;5110633;27;20418;-76
2022/05/02 10:05:03;;;;;;;12.30;9.55;;;15.10;69.80;;;;;;5100876;28;20048;-76
2022/05/02 10:07:29;;;;;;;13.75;9.95;;;15.20;68.70;;;;;;5110922;28;20065;-76
2022/05/02 10:10:09;;;;;;;13.13;10.50;;;15.30;68.00;;;;;;5095573;28;20092;-76
2022/05/02 10:12:47;;;;;;;13.02;10.10;;;15.40;64.60;;;;;;5092144;28;20052;-76
2022/05/02 10:15:40;;;;;;;13.00;10.25;;;15.40;64.60;;;;;;5091130;28;20044;-76
2022/05/02 10:18:15;;;;;;;13.48;10.32;;;15.40;60.50;;;;;;5089053;28;20399;-76
2022/05/02 10:21:10;;;;;;;12.68;9.88;;;15.50;71.20;;;;;;5090527;27;20108;-76
2022/05/02 10:24:07;;;;;;;11.68;10.48;;;15.60;68.00;;;;;;5104289;27;20138;-77
2022/05/02 10:26:46;;;;;;;13.25;10.88;;;15.70;61.20;;;;;;5100127;27;20076;-75
2022/05/02 10:29:42;;;;;;;13.25;10.73;;;15.80;66.80;;;;;;5095029;27;20055;-74
2022/05/02 10:32:35;;;;;;;14.13;11.10;;;15.80;62.70;;;;;;5095880;27;20042;-74
2022/05/02 10:35:02;;;;;;;14.77;10.82;;;15.80;60.70;;;;;;5109261;28;20100;-74
2022/05/02 10:37:33;;;;;;;13.00;11.57;;;15.90;63.50;;;;;;5092334;27;20079;-74
2022/05/02 10:40:08;;;;;;;13.25;10.85;;;15.90;67.70;;;;;;5090240;28;20040;-73
2022/05/02 10:42:35;;;;;;;12.43;10.20;;;16.00;60.30;;;;;;5106897;27;20040;-73
2022/05/02 10:45:05;;;;;;;12.23;9.93;;;16.00;60.50;;;;;;5109520;27;20046;-74
2022/05/02 10:47:52;;;;;;;11.57;10.15;;;16.10;63.50;;;;;;5097024;27;20070;-78
2022/05/02 10:50:30;;;;;;;12.65;10.38;;;16.20;63.70;;;;;;5100172;27;20082;-73
2022/05/02 10:53:13;;;;;;;12.52;9.82;;;16.30;61.40;;;;;;5090034;28;20391;-73
2022/05/02 10:56:10;;;;;;;11.05;9.38;;;16.40;63.70;;;;;;5089003;28;20048;-73
2022/05/02 10:58:38;;;;;;;13.60;10.50;;;16.40;64.20;;;;;;5099459;28;20039;-74
2022/05/02 11:01:16;;;;;;;13.38;10.27;;;16.30;61.10;;;;;;5106975;27;20044;-73
2022/05/02 11:04:03;;;;;;;13.98;11.05;;;16.20;58.90;;;;;;5099709;28;20055;-71
2022/05/02 11:06:43;;;;;;;;;;;16.10;59.60;;;;;;5091160;28;20039;-72
2022/05/02 11:09:17;;;;;;;13.32;10.77;;;16.10;60.90;;;;;;5104092;28;20010;-72
2022/05/02 11:11:50;;;;;;;13.38;11.32;;;16.10;63.40;;;;;;5108483;27;20043;-70
2022/05/02 11:14:25;;;;;;;15.65;11.43;;;16.20;59.30;;;;;;5090596;28;20104;-74
2022/05/02 11:16:56;;;;;;;13.05;10.77;;;16.20;59.90;;;;;;5100802;27;20405;-74
2022/05/02 11:23:27;;;;;;;12.85;10.90;;;16.30;57.30;;;;;;5088192;28;20056;-75
2022/05/02 11:26:09;;;;;;;14.77;11.10;;;16.50;57.60;;;;;;5070086;28;20122;-76
2022/05/02 11:28:48;;;;;;;13.38;11.07;;;16.50;56.70;;;;;;5096072;27;20494;-72
2022/05/02 11:31:29;;;;;;;15.13;11.25;;;16.60;56.60;;;;;;5097994;28;20048;-73
2022/05/02 11:34:27;;;;;;;12.90;11.20;;;16.60;55.00;;;;;;5089880;27;20055;-74
2022/05/02 11:36:55;;;;;;;12.32;11.00;;;16.60;54.30;;;;;;5108011;27;20403;-74
2022/05/02 11:39:39;;;;;;;14.45;11.43;;;16.70;55.10;;;;;;5097575;27;20072;-75
2022/05/02 11:42:13;;;;;;;13.65;10.60;;;16.70;55.30;;;;;;5090422;28;20050;-75
2022/05/02 11:44:53;;;;;;;14.73;11.15;;;16.70;56.60;;;;;;5108089;27;20086;-73
2022/05/02 11:47:48;;;;;;;12.98;11.55;;;16.90;56.70;;;;;;5109455;27;20491;-72
2022/05/02 11:50:14;;;;;;;11.85;10.57;;;17.00;55.20;;;;;;5104000;28;20043;-71
2022/05/02 11:52:47;;;;;;;13.45;11.70;;;17.10;54.60;;;;;;5093497;28;20552;-71
2022/05/02 11:55:14;;;;;;;12.15;10.95;;;17.20;54.30;;;;;;5107901;28;20074;-72
2022/05/02 11:57:44;;;;;;;14.80;10.95;;;17.20;57.40;;;;;;5108508;28;20039;-71
2022/05/02 12:00:16;;;;;;;11.77;10.45;;;17.40;57.10;;;;;;5108726;28;20606;-71
2022/05/02 12:03:03;;;;;;;11.55;10.27;;;17.60;55.00;;;;;;5105176;28;20487;-71
2022/05/02 12:05:32;;;;;;;14.63;10.48;;;17.70;53.90;;;;;;5103976;28;20044;-71
2022/05/02 12:08:03;;;;;;;12.23;10.32;;;17.70;53.30;;;;;;5110461;28;20044;-71
2022/05/02 12:10:47;;;;;;;12.45;11.00;;;17.70;52.50;;;;;;5107811;28;20047;-71
2022/05/02 12:13:18;;;;;;;12.68;10.00;;;17.70;51.30;;;;;;5098159;28;20076;-71
2022/05/02 12:16:00;;;;;;;11.25;10.00;;;17.60;51.40;;;;;;5089101;28;20044;-71
2022/05/02 12:18:38;;;;;;;11.52;10.23;;;17.70;51.20;;;;;;5110962;28;20103;-71
2022/05/02 12:21:06;;;;;;;12.85;10.90;;;17.70;51.40;;;;;;5107958;28;20047;-71
2022/05/02 12:23:34;;;;;;;12.80;11.05;;;17.70;50.70;;;;;;5107099;28;20051;-71
2022/05/02 12:26:12;;;;;;;13.55;10.23;;;17.70;50.30;;;;;;5107247;28;20052;-71
2022/05/02 12:28:41;;;;;;;13.15;10.88;;;17.60;49.50;;;;;;5108767;28;20510;-71
2022/05/02 12:31:08;;;;;;;13.50;9.23;;;17.60;50.30;;;;;;5107345;28;20047;-71
2022/05/02 12:33:40;;;;;;;15.32;10.00;;;17.70;49.80;;;;;;5105036;27;20120;-71
2022/05/02 12:36:19;;;;;;;11.57;10.40;;;17.80;50.30;;;;;;5113443;28;20047;-72
2022/05/02 12:39:04;;;;;;;12.23;9.95;;;17.90;51.00;;;;;;5113463;28;20395;-71
2022/05/02 12:41:42;;;;;;;14.73;11.30;;;17.90;51.00;;;;;;5111921;28;20092;-71
2022/05/02 12:44:12;;;;;;;14.18;11.27;;;17.90;50.10;;;;;;5098881;28;20044;-71
2022/05/02 12:46:39;;;;;;;14.40;10.98;;;17.90;50.50;;;;;;5091517;28;20489;-71
2022/05/02 12:49:08;;;;;;;13.73;10.77;;;18.00;50.90;;;;;;5103936;27;20051;-71
2022/05/02 12:51:33;;;;;;;13.88;11.73;;;18.00;49.80;;;;;;5111810;27;20070;-71
2022/05/02 12:54:13;;;;;;;13.73;10.88;;;18.00;48.80;;;;;;5102389;27;20063;-72
2022/05/02 13:02:34;;;;;;;;;;;18.10;48.70;;;;;;5110477;28;20044;-71
2022/05/02 13:05:21;;;;;;;11.70;10.50;;;18.00;48.50;;;;;;5112630;27;19923;-71
2022/05/02 13:07:48;;;;;;;15.07;11.48;;;18.00;48.70;;;;;;5112027;27;20060;-71
2022/05/02 13:10:34;;;;;;;12.35;10.60;;;18.00;48.20;;;;;;5109740;27;20039;-71
2022/05/02 13:13:05;;;;;;;13.20;10.57;;;18.10;47.20;;;;;;5106820;27;20066;-71
2022/05/02 13:15:39;;;;;;;10.98;9.82;;;18.00;47.60;;;;;;5106108;28;20053;-71
2022/05/02 13:18:08;;;;;;;10.82;9.60;;;18.20;49.20;;;;;;5106209;27;20088;-72
2022/05/02 13:20:33;;;;;;;12.75;9.68;;;18.30;49.50;;;;;;5110215;28;20043;-73
2022/05/02 13:23:07;;;;;;;13.30;10.43;;;18.40;48.60;;;;;;5110755;28;20101;-72
2022/05/02 13:25:52;;;;;;;12.48;11.02;;;18.40;47.90;;;;;;5111386;28;20051;-77
2022/05/02 13:28:25;;;;;;;14.43;10.85;;;18.20;47.30;;;;;;5109152;28;20118;-81
2022/05/02 13:31:23;;;;;;;11.55;9.77;;;18.20;47.40;;;;;;5094203;27;20507;-75
2022/05/02 13:33:53;;;;;;;14.50;10.15;;;18.20;48.40;;;;;;5054703;27;20052;-79
2022/05/02 13:36:21;;;;;;;11.55;9.30;;;18.30;48.00;;;;;;5092075;27;20047;-74
2022/05/02 13:39:06;;;;;;;13.23;10.18;;;18.30;47.40;;;;;;5099413;27;20491;-76
2022/05/02 13:41:54;;;;;;;12.27;9.80;;;18.40;46.80;;;;;;5098319;27;20145;-74
2022/05/02 13:44:40;;;;;;;12.00;9.43;;;18.40;46.80;;;;;;5088339;28;20055;-75
2022/05/02 13:47:10;;;;;;;10.35;9.25;;;18.40;46.80;;;;;;5104906;28;20380;-75